sensor_id;sensor_type;location;lat;lon;timestamp;pressure;altitude;pressure_sealevel;temperature;humidity
49585;BME280;35491;49.142;9.210;2022-10-22T00:00:35;99519.84;;;15.66;78.05
49585;BME280;35491;49.142;9.210;2022-10-22T00:01:37;99522.44;;;15.59;78.51
49585;BME280;35491;49.142;9.210;2022-10-22T00:02:42;99520.72;;;15.73;77.87
49585;BME280;35491;49.142;9.210;2022-10-22T00:03:45;99515.34;;;15.73;77.91
49585;BME280;35491;49.142;9.210;2022-10-22T00:04:49;99527.88;;;15.81;77.80
49585;BME280;35491;49.142;9.210;2022-10-22T00:05:51;99518.22;;;15.87;77.70
49585;BME280;35491;49.142;9.210;2022-10-22T00:06:55;99518.69;;;15.97;77.25
49585;BME280;35491;49.142;9.210;2022-10-22T00:07:59;99516.94;;;16.04;76.58
49585;BME280;35491;49.142;9.210;2022-10-22T00:09:03;99505.13;;;16.05;76.93
49585;BME280;35491;49.142;9.210;2022-10-22T00:10:06;99515.25;;;16.03;77.16
49585;BME280;35491;49.142;9.210;2022-10-22T00:11:15;99524.97;;;15.83;77.36
49585;BME280;35491;49.142;9.210;2022-10-22T00:12:18;99525.31;;;15.95;76.95
49585;BME280;35491;49.142;9.210;2022-10-22T00:13:24;99523.44;;;15.73;77.58
49585;BME280;35491;49.142;9.210;2022-10-22T00:14:27;99522.47;;;15.81;77.29
49585;BME280;35491;49.142;9.210;2022-10-22T00:15:31;99520.41;;;15.83;77.12
49585;BME280;35491;49.142;9.210;2022-10-22T00:16:36;99523.06;;;15.77;77.35
49585;BME280;35491;49.142;9.210;2022-10-22T00:17:40;99524.09;;;15.75;77.30
49585;BME280;35491;49.142;9.210;2022-10-22T00:18:41;99520.72;;;15.73;76.49
49585;BME280;35491;49.142;9.210;2022-10-22T00:19:46;99523.56;;;15.65;76.47
49585;BME280;35491;49.142;9.210;2022-10-22T00:20:47;99524.00;;;15.69;75.97
49585;BME280;35491;49.142;9.210;2022-10-22T00:21:54;99519.25;;;15.71;75.94
49585;BME280;35491;49.142;9.210;2022-10-22T00:22:55;99520.72;;;15.73;75.24
49585;BME280;35491;49.142;9.210;2022-10-22T00:24:03;99509.22;;;15.65;75.00
49585;BME280;35491;49.142;9.210;2022-10-22T00:25:05;99510.97;;;15.72;75.16
49585;BME280;35491;49.142;9.210;2022-10-22T00:26:10;99512.72;;;15.80;74.93
49585;BME280;35491;49.142;9.210;2022-10-22T00:27:15;99515.91;;;15.84;74.34
49585;BME280;35491;49.142;9.210;2022-10-22T00:28:19;99519.56;;;15.61;74.91
49585;BME280;35491;49.142;9.210;2022-10-22T00:29:22;99513.47;;;15.52;74.56
49585;BME280;35491;49.142;9.210;2022-10-22T00:30:27;99516.94;;;15.68;74.33
49585;BME280;35491;49.142;9.210;2022-10-22T00:31:34;99524.28;;;15.59;74.37
49585;BME280;35491;49.142;9.210;2022-10-22T00:32:41;99518.97;;;15.66;74.11
49585;BME280;35491;49.142;9.210;2022-10-22T00:33:45;99518.00;;;15.52;74.30
49585;BME280;35491;49.142;9.210;2022-10-22T00:34:52;99512.50;;;15.60;74.46
49585;BME280;35491;49.142;9.210;2022-10-22T00:35:53;99518.91;;;15.59;74.29
49585;BME280;35491;49.142;9.210;2022-10-22T00:36:58;99536.31;;;15.41;74.76
49585;BME280;35491;49.142;9.210;2022-10-22T00:37:59;99533.91;;;15.47;74.74
49585;BME280;35491;49.142;9.210;2022-10-22T00:39:06;99547.75;;;15.43;74.51
49585;BME280;35491;49.142;9.210;2022-10-22T00:40:14;99553.16;;;15.28;75.29
49585;BME280;35491;49.142;9.210;2022-10-22T00:41:19;99571.19;;;15.28;75.79
49585;BME280;35491;49.142;9.210;2022-10-22T00:42:27;99578.28;;;15.51;75.24
49585;BME280;35491;49.142;9.210;2022-10-22T00:43:32;99580.31;;;15.64;74.82
49585;BME280;35491;49.142;9.210;2022-10-22T00:45:06;99583.41;;;15.60;75.17
49585;BME280;35491;49.142;9.210;2022-10-22T00:46:20;99587.47;;;15.56;75.38
49585;BME280;35491;49.142;9.210;2022-10-22T00:47:23;99583.41;;;15.60;75.33
49585;BME280;35491;49.142;9.210;2022-10-22T00:48:31;99582.66;;;15.52;76.04
49585;BME280;35491;49.142;9.210;2022-10-22T00:49:39;99576.00;;;15.33;76.30
49585;BME280;35491;49.142;9.210;2022-10-22T00:50:43;99573.41;;;15.39;76.52
49585;BME280;35491;49.142;9.210;2022-10-22T00:51:48;99568.03;;;15.39;76.33
49585;BME280;35491;49.142;9.210;2022-10-22T00:52:53;99567.91;;;15.48;75.69
49585;BME280;35491;49.142;9.210;2022-10-22T00:54:02;99557.88;;;15.41;75.20
49585;BME280;35491;49.142;9.210;2022-10-22T00:55:11;99551.00;;;15.39;75.27
49585;BME280;35491;49.142;9.210;2022-10-22T00:56:16;99543.28;;;15.51;75.49
49585;BME280;35491;49.142;9.210;2022-10-22T00:57:21;99539.19;;;15.55;75.04
49585;BME280;35491;49.142;9.210;2022-10-22T00:58:30;99542.66;;;15.49;75.04
49585;BME280;35491;49.142;9.210;2022-10-22T00:59:34;99533.81;;;15.55;74.96
49585;BME280;35491;49.142;9.210;2022-10-22T01:00:41;99536.50;;;15.55;74.97
49585;BME280;35491;49.142;9.210;2022-10-22T01:01:43;99532.38;;;15.59;74.92
49585;BME280;35491;49.142;9.210;2022-10-22T01:02:51;99534.69;;;15.62;74.60
49585;BME280;35491;49.142;9.210;2022-10-22T01:03:53;99538.41;;;15.61;74.63
49585;BME280;35491;49.142;9.210;2022-10-22T01:05:00;99534.94;;;15.46;74.22
49585;BME280;35491;49.142;9.210;2022-10-22T01:06:03;99538.16;;;15.56;74.15
49585;BME280;35491;49.142;9.210;2022-10-22T01:07:13;99535.84;;;15.53;73.98
49585;BME280;35491;49.142;9.210;2022-10-22T01:08:23;99527.31;;;15.49;74.39
49585;BME280;35491;49.142;9.210;2022-10-22T01:09:35;99526.38;;;15.57;74.15
49585;BME280;35491;49.142;9.210;2022-10-22T01:10:54;99525.06;;;15.53;74.25
49585;BME280;35491;49.142;9.210;2022-10-22T01:12:02;99525.25;;;15.51;74.46
49585;BME280;35491;49.142;9.210;2022-10-22T01:13:18;99519.69;;;15.53;73.98
49585;BME280;35491;49.142;9.210;2022-10-22T01:14:34;99518.56;;;15.47;74.30
49585;BME280;35491;49.142;9.210;2022-10-22T01:15:42;99523.41;;;15.52;74.09
49585;BME280;35491;49.142;9.210;2022-10-22T01:17:02;99527.44;;;15.41;74.12
49585;BME280;35491;49.142;9.210;2022-10-22T01:18:08;99536.53;;;15.40;74.33
49585;BME280;35491;49.142;9.210;2022-10-22T01:19:31;99547.97;;;15.27;74.80
49585;BME280;35491;49.142;9.210;2022-10-22T01:20:49;99551.44;;;15.21;75.36
49585;BME280;35491;49.142;9.210;2022-10-22T01:21:58;99546.41;;;15.18;75.40
49585;BME280;35491;49.142;9.210;2022-10-22T01:23:16;99548.53;;;15.07;75.73
49585;BME280;35491;49.142;9.210;2022-10-22T01:24:35;99547.22;;;15.03;76.17
49585;BME280;35491;49.142;9.210;2022-10-22T01:25:49;99544.19;;;14.91;76.84
49585;BME280;35491;49.142;9.210;2022-10-22T01:27:02;99548.09;;;14.89;77.34
49585;BME280;35491;49.142;9.210;2022-10-22T01:28:19;99550.03;;;14.95;77.05
49585;BME280;35491;49.142;9.210;2022-10-22T01:29:28;99546.31;;;14.96;76.76
49585;BME280;35491;49.142;9.210;2022-10-22T01:30:35;99548.19;;;14.95;77.36
49585;BME280;35491;49.142;9.210;2022-10-22T01:31:46;99549.28;;;15.01;77.03
49585;BME280;35491;49.142;9.210;2022-10-22T01:32:55;99550.22;;;14.93;77.49
49585;BME280;35491;49.142;9.210;2022-10-22T01:34:02;99545.84;;;15.07;77.13
49585;BME280;35491;49.142;9.210;2022-10-22T01:35:09;99545.41;;;15.04;76.95
49585;BME280;35491;49.142;9.210;2022-10-22T01:36:13;99551.22;;;14.92;77.39
49585;BME280;35491;49.142;9.210;2022-10-22T01:37:21;99544.28;;;14.98;77.32
49585;BME280;35491;49.142;9.210;2022-10-22T01:38:25;99555.50;;;15.02;77.30
49585;BME280;35491;49.142;9.210;2022-10-22T01:39:30;99564.22;;;14.89;77.74
49585;BME280;35491;49.142;9.210;2022-10-22T01:40:32;99566.00;;;14.81;77.97
49585;BME280;35491;49.142;9.210;2022-10-22T01:41:38;99567.66;;;14.97;77.94
49585;BME280;35491;49.142;9.210;2022-10-22T01:42:54;99567.66;;;15.12;77.02
49585;BME280;35491;49.142;9.210;2022-10-22T01:44:01;99561.16;;;15.22;76.88
49585;BME280;35491;49.142;9.210;2022-10-22T01:45:11;99559.66;;;15.19;76.73
49585;BME280;35491;49.142;9.210;2022-10-22T01:46:23;99556.81;;;15.21;76.69
49585;BME280;35491;49.142;9.210;2022-10-22T01:47:39;99555.75;;;15.22;76.57
49585;BME280;35491;49.142;9.210;2022-10-22T01:48:56;99568.28;;;15.29;76.67
49585;BME280;35491;49.142;9.210;2022-10-22T01:50:23;99568.84;;;15.25;76.40
49585;BME280;35491;49.142;9.210;2022-10-22T01:51:50;99558.94;;;15.25;76.37
49585;BME280;35491;49.142;9.210;2022-10-22T01:53:06;99561.91;;;15.16;76.97
49585;BME280;35491;49.142;9.210;2022-10-22T01:54:24;99566.16;;;15.25;76.49
49585;BME280;35491;49.142;9.210;2022-10-22T01:55:32;99569.97;;;15.31;76.46
49585;BME280;35491;49.142;9.210;2022-10-22T01:56:49;99572.22;;;15.12;77.38
49585;BME280;35491;49.142;9.210;2022-10-22T01:58:00;99580.66;;;15.24;76.83
49585;BME280;35491;49.142;9.210;2022-10-22T01:59:09;99583.78;;;15.27;77.05
49585;BME280;35491;49.142;9.210;2022-10-22T02:00:18;99582.97;;;15.27;76.66
49585;BME280;35491;49.142;9.210;2022-10-22T02:01:29;99585.38;;;15.22;77.18
49585;BME280;35491;49.142;9.210;2022-10-22T02:02:36;99588.16;;;15.28;76.55
49585;BME280;35491;49.142;9.210;2022-10-22T02:03:46;99581.75;;;15.15;77.20
49585;BME280;35491;49.142;9.210;2022-10-22T02:04:55;99595.78;;;15.25;76.75
49585;BME280;35491;49.142;9.210;2022-10-22T02:06:06;99597.44;;;14.96;78.12
49585;BME280;35491;49.142;9.210;2022-10-22T02:07:19;99602.56;;;14.91;78.50
49585;BME280;35491;49.142;9.210;2022-10-22T02:08:27;99605.44;;;15.04;78.04
49585;BME280;35491;49.142;9.210;2022-10-22T02:09:30;99606.34;;;15.11;77.63
49585;BME280;35491;49.142;9.210;2022-10-22T02:10:36;99608.00;;;14.97;78.32
49585;BME280;35491;49.142;9.210;2022-10-22T02:11:39;99609.13;;;15.03;77.97
49585;BME280;35491;49.142;9.210;2022-10-22T02:12:46;99613.50;;;15.04;78.26
49585;BME280;35491;49.142;9.210;2022-10-22T02:13:51;99606.84;;;15.15;77.58
49585;BME280;35491;49.142;9.210;2022-10-22T02:14:57;99601.91;;;15.19;77.33
49585;BME280;35491;49.142;9.210;2022-10-22T02:16:08;99601.91;;;15.19;77.56
49585;BME280;35491;49.142;9.210;2022-10-22T02:17:18;99607.78;;;15.22;77.42
49585;BME280;35491;49.142;9.210;2022-10-22T02:18:24;99598.56;;;15.17;77.30
49585;BME280;35491;49.142;9.210;2022-10-22T02:19:38;99606.19;;;15.13;77.88
49585;BME280;35491;49.142;9.210;2022-10-22T02:20:42;99601.47;;;15.15;77.53
49585;BME280;35491;49.142;9.210;2022-10-22T02:21:48;99600.50;;;15.08;77.68
49585;BME280;35491;49.142;9.210;2022-10-22T02:22:53;99604.16;;;15.00;78.00
49585;BME280;35491;49.142;9.210;2022-10-22T02:23:58;99599.66;;;14.92;78.60
49585;BME280;35491;49.142;9.210;2022-10-22T02:25:06;99603.94;;;15.02;78.38
49585;BME280;35491;49.142;9.210;2022-10-22T02:26:17;99605.53;;;14.96;78.53
49585;BME280;35491;49.142;9.210;2022-10-22T02:27:27;99597.25;;;15.12;77.84
49585;BME280;35491;49.142;9.210;2022-10-22T02:28:37;99597.56;;;15.18;77.50
49585;BME280;35491;49.142;9.210;2022-10-22T02:29:43;99601.53;;;15.07;78.12
49585;BME280;35491;49.142;9.210;2022-10-22T02:30:55;99598.13;;;15.13;78.24
49585;BME280;35491;49.142;9.210;2022-10-22T02:32:02;99601.06;;;15.18;77.61
49585;BME280;35491;49.142;9.210;2022-10-22T02:33:10;99593.19;;;15.17;77.89
49585;BME280;35491;49.142;9.210;2022-10-22T02:34:16;99597.47;;;15.11;77.80
49585;BME280;35491;49.142;9.210;2022-10-22T02:35:26;99592.81;;;15.20;78.01
49585;BME280;35491;49.142;9.210;2022-10-22T02:36:29;99577.13;;;15.23;77.61
49585;BME280;35491;49.142;9.210;2022-10-22T02:37:34;99587.34;;;15.28;77.21
49585;BME280;35491;49.142;9.210;2022-10-22T02:38:36;99586.31;;;15.29;77.31
49585;BME280;35491;49.142;9.210;2022-10-22T02:39:41;99586.94;;;15.31;77.01
49585;BME280;35491;49.142;9.210;2022-10-22T02:40:44;99588.91;;;15.22;77.03
49585;BME280;35491;49.142;9.210;2022-10-22T02:41:49;99578.41;;;15.27;77.36
49585;BME280;35491;49.142;9.210;2022-10-22T02:42:51;99568.59;;;15.35;76.87
49585;BME280;35491;49.142;9.210;2022-10-22T02:43:55;99571.28;;;15.35;76.98
49585;BME280;35491;49.142;9.210;2022-10-22T02:44:58;99561.44;;;15.27;77.21
49585;BME280;35491;49.142;9.210;2022-10-22T02:46:02;99569.16;;;15.30;76.84
49585;BME280;35491;49.142;9.210;2022-10-22T02:47:11;99560.41;;;15.28;76.71
49585;BME280;35491;49.142;9.210;2022-10-22T02:48:15;99566.06;;;15.33;76.55
49585;BME280;35491;49.142;9.210;2022-10-22T02:49:16;99573.31;;;15.18;76.91
49585;BME280;35491;49.142;9.210;2022-10-22T02:50:23;99568.97;;;15.17;77.25
49585;BME280;35491;49.142;9.210;2022-10-22T02:51:24;99564.59;;;15.16;76.96
49585;BME280;35491;49.142;9.210;2022-10-22T02:52:30;99560.41;;;15.28;76.53
49585;BME280;35491;49.142;9.210;2022-10-22T02:53:34;99558.38;;;15.15;76.80
49585;BME280;35491;49.142;9.210;2022-10-22T02:54:38;99555.28;;;15.33;76.62
49585;BME280;35491;49.142;9.210;2022-10-22T02:55:40;99549.53;;;15.36;76.31
49585;BME280;35491;49.142;9.210;2022-10-22T02:56:44;99548.50;;;15.37;76.21
49585;BME280;35491;49.142;9.210;2022-10-22T02:57:45;99546.00;;;15.36;76.00
49585;BME280;35491;49.142;9.210;2022-10-22T02:58:49;99548.88;;;15.34;76.01
49585;BME280;35491;49.142;9.210;2022-10-22T02:59:51;99543.69;;;15.33;75.63
49585;BME280;35491;49.142;9.210;2022-10-22T03:00:55;99549.91;;;15.33;75.72
49585;BME280;35491;49.142;9.210;2022-10-22T03:01:57;99545.81;;;15.37;75.94
49585;BME280;35491;49.142;9.210;2022-10-22T03:03:03;99539.31;;;15.47;75.37
49585;BME280;35491;49.142;9.210;2022-10-22T03:04:05;99541.34;;;15.44;75.43
49585;BME280;35491;49.142;9.210;2022-10-22T03:05:09;99540.88;;;15.41;75.67
49585;BME280;35491;49.142;9.210;2022-10-22T03:06:11;99542.16;;;15.45;75.46
49585;BME280;35491;49.142;9.210;2022-10-22T03:07:15;99550.06;;;15.47;75.23
49585;BME280;35491;49.142;9.210;2022-10-22T03:08:19;99554.25;;;15.49;75.11
49585;BME280;35491;49.142;9.210;2022-10-22T03:09:23;99556.47;;;15.46;75.17
49585;BME280;35491;49.142;9.210;2022-10-22T03:10:24;99555.84;;;15.43;75.56
49585;BME280;35491;49.142;9.210;2022-10-22T03:11:28;99543.28;;;15.51;75.03
49585;BME280;35491;49.142;9.210;2022-10-22T03:12:32;99549.97;;;15.55;74.86
49585;BME280;35491;49.142;9.210;2022-10-22T03:13:37;99548.28;;;15.54;74.86
49585;BME280;35491;49.142;9.210;2022-10-22T03:14:38;99546.25;;;15.56;74.85
49585;BME280;35491;49.142;9.210;2022-10-22T03:15:42;99556.38;;;15.54;75.40
49585;BME280;35491;49.142;9.210;2022-10-22T03:16:44;99558.97;;;15.47;75.24
49585;BME280;35491;49.142;9.210;2022-10-22T03:17:48;99551.88;;;15.39;75.82
49585;BME280;35491;49.142;9.210;2022-10-22T03:18:52;99554.44;;;15.48;75.62
49585;BME280;35491;49.142;9.210;2022-10-22T03:19:56;99558.63;;;15.50;75.39
49585;BME280;35491;49.142;9.210;2022-10-22T03:21:05;99549.88;;;15.48;75.11
49585;BME280;35491;49.142;9.210;2022-10-22T03:22:14;99549.72;;;15.35;75.57
49585;BME280;35491;49.142;9.210;2022-10-22T03:23:18;99548.59;;;15.44;75.48
49585;BME280;35491;49.142;9.210;2022-10-22T03:24:28;99550.19;;;15.38;75.14
49585;BME280;35491;49.142;9.210;2022-10-22T03:25:30;99544.72;;;15.32;75.68
49585;BME280;35491;49.142;9.210;2022-10-22T03:26:39;99550.19;;;15.38;75.41
49585;BME280;35491;49.142;9.210;2022-10-22T03:27:41;99551.78;;;15.33;75.49
49585;BME280;35491;49.142;9.210;2022-10-22T03:28:46;99548.88;;;15.34;75.47
49585;BME280;35491;49.142;9.210;2022-10-22T03:29:50;99548.88;;;15.34;74.90
49585;BME280;35491;49.142;9.210;2022-10-22T03:30:55;99541.56;;;15.28;75.19
49585;BME280;35491;49.142;9.210;2022-10-22T03:31:56;99541.81;;;15.33;75.10
49585;BME280;35491;49.142;9.210;2022-10-22T03:33:00;99557.41;;;15.38;74.62
49585;BME280;35491;49.142;9.210;2022-10-22T03:34:04;99548.69;;;15.36;74.22
49585;BME280;35491;49.142;9.210;2022-10-22T03:35:09;99550.38;;;15.22;74.94
49585;BME280;35491;49.142;9.210;2022-10-22T03:36:11;99547.78;;;15.28;75.05
49585;BME280;35491;49.142;9.210;2022-10-22T03:37:15;99541.16;;;15.31;74.66
49585;BME280;35491;49.142;9.210;2022-10-22T03:38:17;99546.00;;;15.36;74.50
49585;BME280;35491;49.142;9.210;2022-10-22T03:39:21;99536.28;;;15.20;74.75
49585;BME280;35491;49.142;9.210;2022-10-22T03:40:23;99524.97;;;15.24;75.05
49585;BME280;35491;49.142;9.210;2022-10-22T03:41:28;99533.75;;;15.33;74.79
49585;BME280;35491;49.142;9.210;2022-10-22T03:42:29;99527.09;;;15.29;74.66
49585;BME280;35491;49.142;9.210;2022-10-22T03:43:34;99534.31;;;15.28;74.59
49585;BME280;35491;49.142;9.210;2022-10-22T03:44:37;99530.69;;;15.36;74.16
49585;BME280;35491;49.142;9.210;2022-10-22T03:45:42;99535.06;;;15.37;74.34
49585;BME280;35491;49.142;9.210;2022-10-22T03:46:44;99524.28;;;15.37;74.56
49585;BME280;35491;49.142;9.210;2022-10-22T03:47:48;99509.13;;;15.36;74.46
49585;BME280;35491;49.142;9.210;2022-10-22T03:48:49;99505.53;;;15.29;74.81
49585;BME280;35491;49.142;9.210;2022-10-22T03:49:56;99494.78;;;15.29;74.79
49585;BME280;35491;49.142;9.210;2022-10-22T03:50:57;99489.09;;;15.24;74.67
49585;BME280;35491;49.142;9.210;2022-10-22T03:52:05;99475.63;;;15.24;74.84
49585;BME280;35491;49.142;9.210;2022-10-22T03:53:07;99478.34;;;15.24;74.74
49585;BME280;35491;49.142;9.210;2022-10-22T03:54:11;99480.28;;;15.30;74.50
49585;BME280;35491;49.142;9.210;2022-10-22T03:55:13;99490.00;;;15.31;74.68
49585;BME280;35491;49.142;9.210;2022-10-22T03:56:17;99500.78;;;15.31;74.19
49585;BME280;35491;49.142;9.210;2022-10-22T03:57:18;99513.22;;;15.32;74.44
49585;BME280;35491;49.142;9.210;2022-10-22T03:58:22;99523.38;;;15.15;75.09
49585;BME280;35491;49.142;9.210;2022-10-22T03:59:24;99523.94;;;15.25;74.47
49585;BME280;35491;49.142;9.210;2022-10-22T04:00:28;99529.97;;;15.12;74.75
49585;BME280;35491;49.142;9.210;2022-10-22T04:01:30;99529.69;;;15.07;75.47
49585;BME280;35491;49.142;9.210;2022-10-22T04:02:34;99530.06;;;15.19;75.12
49585;BME280;35491;49.142;9.210;2022-10-22T04:03:36;99526.34;;;15.20;74.72
49585;BME280;35491;49.142;9.210;2022-10-22T04:04:40;99528.47;;;15.10;75.37
49585;BME280;35491;49.142;9.210;2022-10-22T04:05:44;99533.03;;;15.24;74.78
49585;BME280;35491;49.142;9.210;2022-10-22T04:06:48;99538.13;;;15.34;74.45
49585;BME280;35491;49.142;9.210;2022-10-22T04:07:50;99536.84;;;15.30;74.67
49585;BME280;35491;49.142;9.210;2022-10-22T04:08:54;99544.53;;;15.33;74.41
49585;BME280;35491;49.142;9.210;2022-10-22T04:10:04;99549.53;;;15.36;74.39
49585;BME280;35491;49.142;9.210;2022-10-22T04:11:18;99558.84;;;15.34;74.31
49585;BME280;35491;49.142;9.210;2022-10-22T04:12:30;99576.47;;;15.06;75.46
49585;BME280;35491;49.142;9.210;2022-10-22T04:13:46;99594.00;;;15.02;75.64
49585;BME280;35491;49.142;9.210;2022-10-22T04:14:57;99587.16;;;15.15;75.46
49585;BME280;35491;49.142;9.210;2022-10-22T04:16:13;99591.25;;;15.10;75.67
49585;BME280;35491;49.142;9.210;2022-10-22T04:17:24;99597.91;;;15.15;75.34
49585;BME280;35491;49.142;9.210;2022-10-22T04:18:38;99591.50;;;15.16;75.67
49585;BME280;35491;49.142;9.210;2022-10-22T04:19:50;99606.97;;;14.84;76.90
49585;BME280;35491;49.142;9.210;2022-10-22T04:21:08;99603.19;;;14.93;76.90
49585;BME280;35491;49.142;9.210;2022-10-22T04:22:19;99609.13;;;14.88;77.05
49585;BME280;35491;49.142;9.210;2022-10-22T04:23:33;99602.91;;;14.88;77.22
49585;BME280;35491;49.142;9.210;2022-10-22T04:24:45;99600.59;;;15.00;76.62
49585;BME280;35491;49.142;9.210;2022-10-22T04:26:03;99589.84;;;15.00;76.69
49585;BME280;35491;49.142;9.210;2022-10-22T04:27:08;99596.81;;;15.09;76.32
49585;BME280;35491;49.142;9.210;2022-10-22T04:28:12;99587.72;;;15.10;76.57
49585;BME280;35491;49.142;9.210;2022-10-22T04:29:14;99596.63;;;15.10;76.32
49585;BME280;35491;49.142;9.210;2022-10-22T04:30:19;99590.50;;;15.17;76.13
49585;BME280;35491;49.142;9.210;2022-10-22T04:31:22;99594.88;;;15.18;76.24
49585;BME280;35491;49.142;9.210;2022-10-22T04:32:26;99590.59;;;15.08;76.52
49585;BME280;35491;49.142;9.210;2022-10-22T04:33:28;99588.63;;;15.17;76.25
49585;BME280;35491;49.142;9.210;2022-10-22T04:34:32;99582.88;;;15.20;75.98
49585;BME280;35491;49.142;9.210;2022-10-22T04:35:37;99590.59;;;15.23;75.63
49585;BME280;35491;49.142;9.210;2022-10-22T04:36:44;99593.94;;;15.25;75.56
49585;BME280;35491;49.142;9.210;2022-10-22T04:37:45;99596.63;;;15.10;76.41
49585;BME280;35491;49.142;9.210;2022-10-22T04:38:52;99602.75;;;15.19;75.84
49585;BME280;35491;49.142;9.210;2022-10-22T04:39:54;99604.63;;;15.19;75.81
49585;BME280;35491;49.142;9.210;2022-10-22T04:41:07;99611.03;;;15.18;75.88
49585;BME280;35491;49.142;9.210;2022-10-22T04:42:08;99602.94;;;15.18;76.17
49585;BME280;35491;49.142;9.210;2022-10-22T04:43:13;99609.44;;;15.08;76.27
49585;BME280;35491;49.142;9.210;2022-10-22T04:44:17;99605.78;;;15.16;76.35
49585;BME280;35491;49.142;9.210;2022-10-22T04:45:21;99613.97;;;15.08;76.37
49585;BME280;35491;49.142;9.210;2022-10-22T04:46:26;99620.56;;;15.05;76.76
49585;BME280;35491;49.142;9.210;2022-10-22T04:47:28;99621.88;;;15.09;76.22
49585;BME280;35491;49.142;9.210;2022-10-22T04:48:32;99623.81;;;15.16;76.26
49585;BME280;35491;49.142;9.210;2022-10-22T04:49:33;99621.13;;;15.16;76.21
49585;BME280;35491;49.142;9.210;2022-10-22T04:50:37;99629.00;;;15.02;76.33
49585;BME280;35491;49.142;9.210;2022-10-22T04:51:39;99622.59;;;15.03;76.49
49585;BME280;35491;49.142;9.210;2022-10-22T04:52:45;99616.00;;;14.91;77.06
49585;BME280;35491;49.142;9.210;2022-10-22T04:53:47;99617.13;;;14.81;77.38
49585;BME280;35491;49.142;9.210;2022-10-22T04:54:51;99619.41;;;14.85;77.22
49585;BME280;35491;49.142;9.210;2022-10-22T04:55:54;99623.44;;;14.89;77.06
49585;BME280;35491;49.142;9.210;2022-10-22T04:56:58;99624.72;;;14.78;77.39
49585;BME280;35491;49.142;9.210;2022-10-22T04:57:59;99626.13;;;14.89;77.35
49585;BME280;35491;49.142;9.210;2022-10-22T04:59:06;99625.03;;;14.98;76.80
49585;BME280;35491;49.142;9.210;2022-10-22T05:00:10;99630.50;;;15.05;76.34
49585;BME280;35491;49.142;9.210;2022-10-22T05:01:18;99635.69;;;15.06;76.35
49585;BME280;35491;49.142;9.210;2022-10-22T05:02:19;99640.53;;;15.11;76.28
49585;BME280;35491;49.142;9.210;2022-10-22T05:03:23;99637.63;;;15.12;76.12
49585;BME280;35491;49.142;9.210;2022-10-22T05:04:25;99638.09;;;15.16;76.29
49585;BME280;35491;49.142;9.210;2022-10-22T05:05:29;99647.38;;;15.13;76.39
49585;BME280;35491;49.142;9.210;2022-10-22T05:06:31;99651.03;;;15.21;76.06
49585;BME280;35491;49.142;9.210;2022-10-22T05:07:36;99648.06;;;15.16;76.43
49585;BME280;35491;49.142;9.210;2022-10-22T05:08:40;99658.81;;;15.16;76.46
49585;BME280;35491;49.142;9.210;2022-10-22T05:09:44;99648.38;;;14.97;77.02
49585;BME280;35491;49.142;9.210;2022-10-22T05:10:46;99652.28;;;14.95;77.28
49585;BME280;35491;49.142;9.210;2022-10-22T05:11:51;99660.75;;;15.07;77.02
49585;BME280;35491;49.142;9.210;2022-10-22T05:12:53;99659.19;;;15.12;76.75
49585;BME280;35491;49.142;9.210;2022-10-22T05:13:58;99653.44;;;15.16;76.38
49585;BME280;35491;49.142;9.210;2022-10-22T05:15:00;99654.25;;;15.16;76.33
49585;BME280;35491;49.142;9.210;2022-10-22T05:16:04;99657.16;;;15.15;76.39
49585;BME280;35491;49.142;9.210;2022-10-22T05:17:06;99654.66;;;15.13;76.50
49585;BME280;35491;49.142;9.210;2022-10-22T05:18:10;99661.88;;;15.12;76.65
49585;BME280;35491;49.142;9.210;2022-10-22T05:19:15;99657.16;;;15.15;76.62
49585;BME280;35491;49.142;9.210;2022-10-22T05:20:20;99660.03;;;15.13;76.72
49585;BME280;35491;49.142;9.210;2022-10-22T05:21:21;99654.19;;;15.09;76.87
49585;BME280;35491;49.142;9.210;2022-10-22T05:22:23;99658.91;;;15.07;77.09
49585;BME280;35491;49.142;9.210;2022-10-22T05:23:27;99659.91;;;15.06;76.82
49585;BME280;35491;49.142;9.210;2022-10-22T05:24:33;99657.50;;;14.96;77.15
49585;BME280;35491;49.142;9.210;2022-10-22T05:25:37;99661.03;;;14.97;77.32
49585;BME280;35491;49.142;9.210;2022-10-22T05:26:39;99662.69;;;14.98;77.29
49585;BME280;35491;49.142;9.210;2022-10-22T05:27:47;99663.72;;;14.97;77.17
49585;BME280;35491;49.142;9.210;2022-10-22T05:28:50;99666.75;;;14.94;77.34
49585;BME280;35491;49.142;9.210;2022-10-22T05:29:54;99671.78;;;14.97;77.41
49585;BME280;35491;49.142;9.210;2022-10-22T05:30:57;99675.69;;;14.94;77.47
49585;BME280;35491;49.142;9.210;2022-10-22T05:32:02;99674.22;;;14.92;77.40
49585;BME280;35491;49.142;9.210;2022-10-22T05:33:03;99676.59;;;14.87;77.80
49585;BME280;35491;49.142;9.210;2022-10-22T05:34:07;99679.59;;;14.92;77.64
49585;BME280;35491;49.142;9.210;2022-10-22T05:35:09;99677.25;;;14.89;77.84
49585;BME280;35491;49.142;9.210;2022-10-22T05:36:16;99680.69;;;14.82;77.73
49585;BME280;35491;49.142;9.210;2022-10-22T05:37:17;99682.72;;;14.80;78.10
49585;BME280;35491;49.142;9.210;2022-10-22T05:38:22;99690.78;;;14.80;77.91
49585;BME280;35491;49.142;9.210;2022-10-22T05:39:23;99677.31;;;14.80;77.96
49585;BME280;35491;49.142;9.210;2022-10-22T05:40:30;99686.22;;;14.81;77.84
49585;BME280;35491;49.142;9.210;2022-10-22T05:41:33;99687.53;;;14.62;78.70
49585;BME280;35491;49.142;9.210;2022-10-22T05:42:37;99691.53;;;14.66;78.71
49585;BME280;35491;49.142;9.210;2022-10-22T05:43:39;99687.31;;;14.72;78.47
49585;BME280;35491;49.142;9.210;2022-10-22T05:44:44;99686.09;;;14.74;78.56
49585;BME280;35491;49.142;9.210;2022-10-22T05:45:48;99689.28;;;14.78;78.17
49585;BME280;35491;49.142;9.210;2022-10-22T05:46:54;99689.09;;;14.79;78.11
49585;BME280;35491;49.142;9.210;2022-10-22T05:47:57;99693.00;;;14.77;78.27
49585;BME280;35491;49.142;9.210;2022-10-22T05:49:11;99693.34;;;14.74;78.42
49585;BME280;35491;49.142;9.210;2022-10-22T05:50:21;99697.72;;;14.75;78.48